createdAt,value
2022-11-05T00:02:18.423Z,92.73
2022-11-05T00:07:18.369Z,92.46
2022-11-05T00:12:18.288Z,92.57
2022-11-05T00:17:18.219Z,92.61
2022-11-05T00:22:18.277Z,93.23
2022-11-05T00:27:18.107Z,92.92
2022-11-05T00:32:18.064Z,92.44
2022-11-05T00:37:18.033Z,92.65
2022-11-05T00:42:17.962Z,92.69
2022-11-05T00:47:17.987Z,93.21
2022-11-05T00:52:17.907Z,92.53
2022-11-05T00:57:17.865Z,93.66
2022-11-05T01:02:26.869Z,93.05
2022-11-05T01:07:17.669Z,92.99
2022-11-05T01:12:17.605Z,93.30
2022-11-05T01:17:17.564Z,93.91
2022-11-05T01:22:17.505Z,93.81
2022-11-05T01:27:17.577Z,93.75
2022-11-05T01:32:17.475Z,93.54
2022-11-05T01:37:17.416Z,95.83
2022-11-05T01:42:17.404Z,95.68
2022-11-05T01:47:17.351Z,95.06
2022-11-05T01:52:17.262Z,95.49
2022-11-05T01:57:17.121Z,93.41
2022-11-05T02:02:17.145Z,93.46
2022-11-05T02:07:17.028Z,95.06
2022-11-05T02:12:16.965Z,94.81
2022-11-05T02:17:16.957Z,94.60
2022-11-05T02:22:16.902Z,92.33
2022-11-05T02:27:16.846Z,93.56
2022-11-05T02:32:16.797Z,95.64
2022-11-05T02:37:16.732Z,94.09
2022-11-05T02:42:16.654Z,94.51
2022-11-05T02:47:18.334Z,94.09
2022-11-05T02:52:16.548Z,95.33
2022-11-05T02:57:16.582Z,95.28
2022-11-05T03:02:17.707Z,95.14
2022-11-05T03:07:16.439Z,94.73
2022-11-05T03:12:16.395Z,94.83
2022-11-05T03:17:16.254Z,94.52
2022-11-05T03:22:16.213Z,94.11
2022-11-05T03:27:16.143Z,94.21
2022-11-05T03:32:16.122Z,94.15
2022-11-05T03:37:16.190Z,93.95
2022-11-05T03:42:17.057Z,93.06
2022-11-05T03:47:15.974Z,93.41
2022-11-05T03:52:15.900Z,94.34
2022-11-05T03:57:15.873Z,94.76
2022-11-05T04:02:16.874Z,94.65
2022-11-05T04:07:15.720Z,94.24
2022-11-05T04:12:15.670Z,94.55
2022-11-05T04:17:15.605Z,94.08
2022-11-05T04:22:15.546Z,94.18
2022-11-05T04:27:15.648Z,94.12
2022-11-05T04:32:15.527Z,94.43
2022-11-05T04:37:16.482Z,94.74
2022-11-05T04:42:16.422Z,94.53
2022-11-05T04:47:15.365Z,94.84
2022-11-05T04:52:15.223Z,94.02
2022-11-05T04:57:15.182Z,94.32
2022-11-05T05:02:15.219Z,94.02
2022-11-05T05:07:15.111Z,93.96
2022-11-05T05:12:15.050Z,93.75
2022-11-05T05:17:14.985Z,93.69
2022-11-05T05:22:14.924Z,94.15
2022-11-05T05:27:14.878Z,93.94
2022-11-05T05:32:14.787Z,94.77
2022-11-05T05:37:14.727Z,94.46
2022-11-05T05:42:14.696Z,94.46
2022-11-05T05:47:14.623Z,94.50
2022-11-05T05:52:14.719Z,94.67
2022-11-05T05:57:14.614Z,94.97
2022-11-05T06:02:14.585Z,95.18
2022-11-05T06:07:14.491Z,95.49
2022-11-05T06:12:14.437Z,95.18
2022-11-05T06:17:14.327Z,94.67
2022-11-05T06:22:14.305Z,95.39
2022-11-05T06:27:14.241Z,95.76
2022-11-05T06:32:15.209Z,95.55
2022-11-05T06:37:14.168Z,95.45
2022-11-05T06:42:18.771Z,95.50
2022-11-05T06:47:15.019Z,95.71
2022-11-05T06:52:13.941Z,95.87
2022-11-05T06:57:13.880Z,95.46
2022-11-05T07:02:13.934Z,95.83
2022-11-05T07:21:53.437Z,94.34
2022-11-05T07:26:54.299Z,94.80
2022-11-05T07:31:55.668Z,94.90
2022-11-05T07:37:10.995Z,94.85
2022-11-05T07:42:04.557Z,94.65
2022-11-05T07:46:56.437Z,95.31
2022-11-05T07:51:59.502Z,95.06
2022-11-05T07:56:53.528Z,95.06
2022-11-05T08:01:53.801Z,95.17
2022-11-05T08:06:55.459Z,94.71
2022-11-05T08:11:57.402Z,94.81
2022-11-05T08:16:53.824Z,94.81
2022-11-05T08:21:52.653Z,94.81
2022-11-05T08:26:54.597Z,94.67
2022-11-05T08:31:54.817Z,94.56
2022-11-05T08:36:53.574Z,94.77
2022-11-05T08:41:52.476Z,94.11
2022-11-05T08:46:53.368Z,93.76
2022-11-05T08:51:52.357Z,93.51
2022-11-05T08:56:52.272Z,93.10
2022-11-05T09:01:52.385Z,92.44
2022-11-05T09:06:52.150Z,91.67
2022-11-05T09:12:15.904Z,91.16
2022-11-05T09:16:53.008Z,90.30
2022-11-05T09:21:52.017Z,88.98
2022-11-05T09:26:52.002Z,88.02
2022-11-05T09:31:55.278Z,87.30
2022-11-05T09:36:51.909Z,85.99
2022-11-05T09:41:51.898Z,84.63
2022-11-05T09:46:51.689Z,84.17
2022-11-05T09:51:51.650Z,84.17
2022-11-05T09:56:51.582Z,82.60
2022-11-05T10:01:51.705Z,82.20
2022-11-05T10:06:51.484Z,81.54
2022-11-05T10:11:51.418Z,81.30
2022-11-05T10:16:51.452Z,80.55
2022-11-05T10:22:06.117Z,79.32
2022-11-05T10:26:52.443Z,78.91
2022-11-05T10:31:51.204Z,79.02
2022-11-05T10:36:51.217Z,78.09
2022-11-05T10:41:51.095Z,77.21
2022-11-05T10:46:51.041Z,77.82
2022-11-05T10:51:50.997Z,76.80
2022-11-05T10:56:50.984Z,77.21
2022-11-05T11:01:50.990Z,76.39
2022-11-05T11:06:50.863Z,76.29
2022-11-05T11:11:50.798Z,76.46
2022-11-05T11:16:50.699Z,75.68
2022-11-05T11:21:50.692Z,76.76
2022-11-05T11:26:50.601Z,76.97
2022-11-05T11:31:50.555Z,76.15
2022-11-05T11:36:50.492Z,76.12
2022-11-05T11:41:50.645Z,75.64
2022-11-05T11:46:51.408Z,75.64
2022-11-05T11:51:50.385Z,75.95
2022-11-05T11:56:50.358Z,75.92
2022-11-05T12:01:50.459Z,76.29
2022-11-05T12:06:50.153Z,76.09
2022-11-05T12:11:50.133Z,76.59
2022-11-05T12:16:50.054Z,77.37
2022-11-05T12:21:53.649Z,76.56
2022-11-05T12:26:49.990Z,76.97
2022-11-05T12:31:49.871Z,77.07
2022-11-05T12:36:49.797Z,77.31
2022-11-05T12:41:49.745Z,78.37
2022-11-05T12:46:49.703Z,76.80
2022-11-05T12:51:49.679Z,77.11
2022-11-05T12:56:49.578Z,77.21
2022-11-05T13:01:49.674Z,77.31
2022-11-05T13:06:58.356Z,76.46
2022-11-05T13:11:49.375Z,76.32
2022-11-05T13:16:50.344Z,77.10
2022-11-05T13:21:49.395Z,76.28
2022-11-05T13:26:49.313Z,75.06
2022-11-05T13:31:49.197Z,74.76
2022-11-05T13:36:49.115Z,73.91
2022-11-05T13:41:49.076Z,73.33
2022-11-05T13:46:49.029Z,72.11
2022-11-05T13:51:49.033Z,72.92
2022-11-05T13:56:48.983Z,73.36
2022-11-05T14:01:51.108Z,72.86
2022-11-05T14:06:52.346Z,72.89
2022-11-05T14:11:48.809Z,73.33
2022-11-05T14:16:48.754Z,73.74
2022-11-05T14:21:48.640Z,73.43
2022-11-05T14:26:48.554Z,72.52
2022-11-05T14:32:07.695Z,74.62
2022-11-05T14:36:49.487Z,73.84
2022-11-05T14:41:48.374Z,74.08
2022-11-05T14:46:48.372Z,74.29
2022-11-05T14:51:48.293Z,75.65
2022-11-05T14:56:53.282Z,75.75
2022-11-05T15:01:49.244Z,74.79
2022-11-05T15:06:48.123Z,75.13
2022-11-05T15:11:48.076Z,74.83
2022-11-05T15:16:48.103Z,75.54
2022-11-05T15:21:48.065Z,75.95
2022-11-05T15:26:47.915Z,75.48
2022-11-05T15:31:48.024Z,75.89
2022-11-05T15:36:47.805Z,74.90
2022-11-05T15:41:48.944Z,75.99
2022-11-05T15:46:47.870Z,75.31
2022-11-05T15:51:47.796Z,75.55
2022-11-05T15:56:47.657Z,75.65
2022-11-05T16:01:47.633Z,75.04
2022-11-05T16:06:47.461Z,74.73
2022-11-05T16:11:47.432Z,75.65
2022-11-05T16:16:47.385Z,75.27
2022-11-05T16:21:47.278Z,75.65
2022-11-05T16:27:03.426Z,75.59
2022-11-05T16:31:48.304Z,75.24
2022-11-05T16:36:47.179Z,75.27
2022-11-05T16:41:47.197Z,74.35
2022-11-05T16:46:46.998Z,74.97
2022-11-05T16:51:46.998Z,74.87
2022-11-05T16:56:46.896Z,74.66
2022-11-05T17:01:50.439Z,75.48
2022-11-05T17:06:47.829Z,75.59
2022-11-05T17:11:46.815Z,75.27
2022-11-05T17:16:46.703Z,75.17
2022-11-05T17:21:46.642Z,75.79
2022-11-05T17:26:46.587Z,75.31
2022-11-05T17:31:46.577Z,75.82
2022-11-05T17:36:47.512Z,75.07
2022-11-05T17:41:46.535Z,75.89
2022-11-05T17:46:46.471Z,75.68
2022-11-05T17:51:46.323Z,75.99
2022-11-05T17:56:46.252Z,76.40
2022-11-05T18:01:46.351Z,76.40
2022-11-05T18:06:46.207Z,76.84
2022-11-05T18:11:46.139Z,75.99
2022-11-05T18:16:46.060Z,76.43
2022-11-05T18:21:46.087Z,76.61
2022-11-05T18:26:46.007Z,76.81
2022-11-05T18:31:45.883Z,76.40
2022-11-05T18:36:45.824Z,77.36
2022-11-05T18:41:45.840Z,77.87
2022-11-05T18:46:59.592Z,77.46
2022-11-05T18:51:46.759Z,78.28
2022-11-05T18:56:45.833Z,78.49
2022-11-05T19:01:45.776Z,78.49
2022-11-05T19:06:54.470Z,78.17
2022-11-05T19:11:45.447Z,78.38
2022-11-05T19:16:45.418Z,78.93
2022-11-05T19:21:45.447Z,79.34
2022-11-05T19:26:46.377Z,79.10
2022-11-05T19:31:45.285Z,79.13
2022-11-05T19:36:45.222Z,79.64
2022-11-05T19:41:45.200Z,79.44
2022-11-05T19:46:45.178Z,79.54
2022-11-05T19:51:45.079Z,79.75
2022-11-05T19:56:44.979Z,80.36
2022-11-05T20:01:45.081Z,80.36
2022-11-05T20:06:44.881Z,80.51
2022-11-05T20:11:44.839Z,80.51
2022-11-05T20:16:44.829Z,80.91
2022-11-05T20:21:44.724Z,81.22
2022-11-05T20:26:44.665Z,80.40
2022-11-05T20:31:44.605Z,80.51
2022-11-05T20:36:44.543Z,80.09
2022-11-05T20:41:44.499Z,80.91
2022-11-05T20:46:44.419Z,81.22
2022-11-05T20:51:44.377Z,80.91
2022-11-05T20:56:44.306Z,80.95
2022-11-05T21:01:44.332Z,81.36
2022-11-05T21:06:44.221Z,81.05
2022-11-05T21:11:44.165Z,80.54
2022-11-05T21:16:44.119Z,81.15
2022-11-05T21:21:44.101Z,80.74
2022-11-05T21:26:44.040Z,80.85
2022-11-05T21:31:44.065Z,81.05
2022-11-05T21:36:43.924Z,80.85
2022-11-05T21:41:43.883Z,81.67
2022-11-05T21:46:44.023Z,82.01
2022-11-05T21:51:43.872Z,81.81
2022-11-05T21:56:43.714Z,81.26
2022-11-05T22:01:43.930Z,81.40
2022-11-05T22:06:43.698Z,80.85
2022-11-05T22:11:43.731Z,81.20
2022-11-05T22:16:43.596Z,81.15
2022-11-05T22:21:44.545Z,81.26
2022-11-05T22:26:43.517Z,81.40
2022-11-05T22:31:43.462Z,82.12
2022-11-05T22:36:44.372Z,82.22
2022-11-05T22:41:43.408Z,81.81
2022-11-05T22:46:43.270Z,81.91
2022-11-05T22:51:43.196Z,81.60
2022-11-05T22:56:43.199Z,82.15
2022-11-05T23:01:43.194Z,82.26
2022-11-05T23:06:43.135Z,82.36
2022-11-05T23:11:43.038Z,82.36
2022-11-05T23:16:42.991Z,82.15
2022-11-05T23:21:42.797Z,82.46
2022-11-05T23:26:42.812Z,82.46
2022-11-05T23:31:42.685Z,81.81
2022-11-05T23:36:42.637Z,81.29
2022-11-05T23:41:42.572Z,81.60
2022-11-05T23:46:42.591Z,81.71
2022-11-05T23:51:42.540Z,81.74
2022-11-05T23:56:42.553Z,81.74
